Time;durP1;ratioP1;P1;durP2;ratioP2;P2;SDS_P1;SDS_P2;PMS_P1;PMS_P2;Temp;Humidity;BMP_temperature;BMP_pressure;BME280_temperature;BME280_humidity;BME280_pressure;Samples;Min_cycle;Max_cycle;Signal;HPM_P1;HPM_P2
2024/03/21 00:00:35;;;;;;;28.10;18.67;;;;;;;-146.27;80.96;44209.19;5081100;28;20031;-72
2024/03/21 00:03:01;;;;;;;34.85;20.23;;;;;;;-146.27;81.03;44207.22;5071321;28;20162;-71
2024/03/21 00:05:26;;;;;;;32.63;18.83;;;;;;;-146.27;80.93;44197.25;5088013;28;20023;-70
2024/03/21 00:07:53;;;;;;;34.13;19.08;;;;;;;-146.27;80.89;44187.31;5087082;28;20023;-71
2024/03/21 00:10:19;;;;;;;38.30;21.63;;;;;;;-146.27;81.90;44175.38;5086043;28;20046;-71
2024/03/21 00:12:48;;;;;;;37.10;20.95;;;;;;;-146.27;81.61;44149.50;5081812;28;20099;-73
2024/03/21 00:15:15;;;;;;;31.40;19.55;;;;;;;-146.27;81.40;44155.47;5078900;28;20094;-71
2024/03/21 00:17:41;;;;;;;34.92;20.20;;;;;;;-146.27;81.54;44197.25;5106042;28;20016;-72
2024/03/21 00:20:10;;;;;;;33.17;19.58;;;;;;;-146.27;81.68;44163.44;5098018;28;20500;-71
2024/03/21 00:22:39;;;;;;;41.42;21.33;;;;;;;-146.27;81.42;44183.34;5087027;28;20113;-71
2024/03/21 00:25:05;;;;;;;30.02;19.05;;;;;;;-146.27;81.50;44175.38;5087202;28;20040;-71
2024/03/21 00:27:32;;;;;;;31.38;19.52;;;;;;;-146.27;81.72;44147.53;5090450;28;20134;-70
2024/03/21 00:29:58;;;;;;;28.75;19.65;;;;;;;-146.27;81.53;44153.50;5078819;28;20468;-70
2024/03/21 00:32:23;;;;;;;31.75;18.58;;;;;;;-146.27;80.94;44173.38;5087265;28;20028;-71
2024/03/21 00:34:48;;;;;;;26.60;16.27;;;;;;;-146.27;80.88;44235.06;5082633;28;20446;-71
2024/03/21 00:37:14;;;;;;;31.13;17.42;;;;;;;-146.27;80.93;44211.19;5087227;28;20024;-71
2024/03/21 00:39:42;;;;;;;32.17;16.80;;;;;;;-146.27;81.28;44260.94;5101597;28;20122;-71
2024/03/21 00:42:08;;;;;;;30.13;17.13;;;;;;;-146.27;81.38;44249.00;5096201;28;20058;-71
2024/03/21 00:44:33;;;;;;;30.05;16.35;;;;;;;-146.27;81.49;44270.88;5088534;28;20032;-71
2024/03/21 00:46:58;;;;;;;30.90;16.27;;;;;;;-146.27;81.31;44249.00;5082774;28;20023;-71
2024/03/21 00:49:24;;;;;;;33.92;16.77;;;;;;;-146.27;80.60;44211.19;5078660;28;20479;-70
2024/03/21 00:51:49;;;;;;;28.63;16.80;;;;;;;-146.27;81.11;44258.94;5101691;28;20470;-71
2024/03/21 00:54:14;;;;;;;35.00;16.52;;;;;;;-146.27;81.47;44260.94;5075810;28;20020;-70
2024/03/21 00:56:40;;;;;;;30.60;18.30;;;;;;;-146.27;82.04;44260.94;5083286;28;20392;-70
2024/03/21 00:59:06;;;;;;;38.65;16.17;;;;;;;-146.27;82.10;44249.00;5088317;28;20028;-71
2024/03/21 01:01:31;;;;;;;32.67;17.52;;;;;;;-146.27;82.11;44199.25;5099309;28;20088;-70
2024/03/21 01:03:57;;;;;;;30.60;16.67;;;;;;;-146.27;82.30;44215.16;5092119;28;20036;-71
2024/03/21 01:06:23;;;;;;;31.35;16.25;;;;;;;-146.27;82.46;44195.28;5092928;28;20027;-71
2024/03/21 01:08:49;;;;;;;31.67;16.40;;;;;;;-146.27;81.99;44167.41;5097205;28;20063;-72
2024/03/21 01:11:15;;;;;;;31.60;17.48;;;;;;;-146.27;81.91;44161.44;5088252;28;20113;-72
2024/03/21 01:13:41;;;;;;;34.70;17.52;;;;;;;-146.27;82.85;44163.44;5079742;28;20503;-71
2024/03/21 01:16:11;;;;;;;30.90;16.17;;;;;;;-146.27;82.58;44121.66;5073963;28;20036;-72
2024/03/21 01:18:40;;;;;;;33.97;16.80;;;;;;;-146.27;82.71;44111.72;5089815;28;20031;-71
2024/03/21 01:21:06;;;;;;;36.80;17.20;;;;;;;-146.27;83.18;44089.81;5088526;28;20429;-71
2024/03/21 01:23:33;;;;;;;31.63;18.02;;;;;;;-146.27;83.67;44129.63;5081235;28;20092;-71
2024/03/21 01:25:59;;;;;;;36.15;18.83;;;;;;;-146.27;83.75;44083.84;5090772;28;20131;-70
2024/03/21 01:28:26;;;;;;;29.92;17.02;;;;;;;-146.27;84.00;44059.97;5095103;28;20048;-71
2024/03/21 01:30:51;;;;;;;32.72;17.42;;;;;;;-146.27;83.90;44022.19;5092731;28;20032;-71
2024/03/21 01:33:18;;;;;;;30.25;16.92;;;;;;;-146.27;83.87;44012.22;5099379;28;20426;-71
2024/03/21 01:35:44;;;;;;;26.85;16.60;;;;;;;-146.27;84.29;44004.28;5088868;28;20033;-73
2024/03/21 01:38:09;;;;;;;29.55;15.75;;;;;;;-146.27;83.80;43954.53;5100889;28;20484;-73
2024/03/21 01:40:38;;;;;;;24.48;13.82;;;;;;;-146.27;84.58;43960.50;5091994;28;20071;-73
2024/03/21 01:43:20;;;;;;;25.00;14.00;;;;;;;-146.27;84.52;43944.59;5091855;28;20539;-72
2024/03/21 01:46:05;;;;;;;22.70;13.73;;;;;;;-146.27;84.69;43920.72;5090562;28;20517;-73
2024/03/21 01:48:30;;;;;;;24.35;12.75;;;;;;;-146.27;84.37;43926.69;5094395;28;20042;-73
2024/03/21 01:50:57;;;;;;;20.48;11.45;;;;;;;-146.27;84.36;43944.59;5091791;28;20391;-73
2024/03/21 01:53:23;;;;;;;21.40;11.32;;;;;;;-146.27;84.90;43962.50;5105914;28;20039;-73
2024/03/21 01:55:49;;;;;;;20.95;11.63;;;;;;;-146.27;84.87;43936.63;5097750;28;20376;-72
2024/03/21 01:58:16;;;;;;;19.30;10.73;;;;;;;-146.27;85.14;43944.59;5089438;28;20042;-73
2024/03/21 02:00:41;;;;;;;16.73;9.02;;;;;;;-146.27;85.02;43934.66;5090388;28;20102;-73
2024/03/21 02:03:07;;;;;;;17.60;9.18;;;;;;;-146.27;85.28;43972.44;5090903;28;20115;-72
2024/03/21 02:05:32;;;;;;;18.02;8.27;;;;;;;-146.27;85.25;43952.56;5098682;28;20026;-72
2024/03/21 02:07:58;;;;;;;12.63;8.10;;;;;;;-146.27;85.18;43992.34;5097299;28;20016;-73
2024/03/21 02:10:23;;;;;;;18.60;6.72;;;;;;;-146.27;85.24;43964.50;5097307;28;20061;-72
2024/03/21 02:12:49;;;;;;;10.68;6.85;;;;;;;-146.27;85.09;43950.56;5105372;28;20058;-72
2024/03/21 02:15:14;;;;;;;15.95;6.93;;;;;;;-146.27;85.18;43936.63;5095393;28;20098;-72
2024/03/21 02:17:41;;;;;;;11.52;6.80;;;;;;;-146.27;85.51;43992.34;5093307;28;20026;-72
2024/03/21 02:20:08;;;;;;;12.38;6.88;;;;;;;-146.27;85.39;43978.41;5103202;28;20114;-72
2024/03/21 02:22:37;;;;;;;16.05;6.95;;;;;;;-146.27;85.21;43936.63;5107722;28;20423;-73
2024/03/21 02:25:06;;;;;;;14.88;6.35;;;;;;;-146.27;85.12;43950.56;5081679;28;20040;-73
2024/03/21 02:27:33;;;;;;;9.65;5.90;;;;;;;-146.27;85.21;43996.31;5091056;28;20107;-73
2024/03/21 02:29:59;;;;;;;15.80;6.25;;;;;;;-146.27;85.32;43998.31;5104757;28;20486;-72
2024/03/21 02:32:25;;;;;;;9.45;5.72;;;;;;;-146.27;85.54;44020.19;5089239;28;20024;-73
2024/03/21 02:34:50;;;;;;;11.75;6.10;;;;;;;-146.27;85.28;43988.34;5087924;28;20043;-73
2024/03/21 02:37:16;;;;;;;10.27;6.43;;;;;;;-146.27;85.56;43992.34;5094273;28;20034;-73
2024/03/21 02:39:45;;;;;;;9.38;6.95;;;;;;;-146.27;85.61;43956.53;5090498;28;20032;-73
2024/03/21 02:42:11;;;;;;;11.23;6.30;;;;;;;-146.27;85.05;43944.59;5089668;28;20035;-73
2024/03/21 02:44:36;;;;;;;10.13;5.30;;;;;;;-146.27;84.69;44022.19;5088741;28;20418;-73
2024/03/21 02:47:02;;;;;;;7.70;4.88;;;;;;;-146.27;84.65;44075.91;5097303;28;20462;-73
2024/03/21 02:49:27;;;;;;;11.85;5.32;;;;;;;-146.27;84.49;44073.91;5088151;28;20035;-73
2024/03/21 02:51:54;;;;;;;7.97;5.15;;;;;;;-146.27;84.42;44071.91;5092585;28;20054;-73
2024/03/21 02:54:19;;;;;;;6.65;4.68;;;;;;;-146.27;84.15;44087.84;5097918;28;20053;-73
2024/03/21 02:56:45;;;;;;;6.35;5.22;;;;;;;-146.27;84.31;44123.66;5094878;28;20024;-73
2024/03/21 02:59:10;;;;;;;9.90;6.50;;;;;;;-146.27;84.24;44191.28;5094344;28;20024;-72
2024/03/21 03:01:35;;;;;;;7.28;4.93;;;;;;;-146.27;84.54;44167.41;5094424;27;20044;-73
2024/03/21 03:04:02;;;;;;;7.72;3.33;;;;;;;-146.27;84.48;44189.31;5105286;28;20105;-73
2024/03/21 03:06:28;;;;;;;8.38;3.47;;;;;;;-146.27;84.75;44215.16;5081328;28;20071;-73
2024/03/21 03:08:53;;;;;;;8.23;3.70;;;;;;;-146.27;85.14;44217.16;5089981;28;20059;-73
2024/03/21 03:11:19;;;;;;;8.65;3.95;;;;;;;-146.27;85.85;44215.16;5089567;28;20032;-73
2024/03/21 03:13:44;;;;;;;5.05;3.00;;;;;;;-146.27;85.60;44249.00;5100195;28;20024;-72
2024/03/21 03:16:09;;;;;;;10.40;4.68;;;;;;;-146.27;85.75;44235.06;5088683;28;20051;-73
2024/03/21 03:18:35;;;;;;;9.30;3.85;;;;;;;-146.27;85.78;44207.22;5089964;28;20028;-73
2024/03/21 03:21:00;;;;;;;10.43;4.97;;;;;;;-146.27;86.29;44223.13;5095440;28;20035;-72
2024/03/21 03:23:25;;;;;;;7.22;5.13;;;;;;;-146.27;86.13;44262.91;5097186;28;20435;-73
2024/03/21 03:25:51;;;;;;;8.60;5.32;;;;;;;-146.27;86.21;44217.16;5101847;28;20056;-73
2024/03/21 03:28:16;;;;;;;11.45;5.90;;;;;;;-146.27;86.06;44223.13;5093255;28;20641;-73
2024/03/21 03:30:44;;;;;;;15.80;6.15;;;;;;;-146.27;85.86;44215.16;5091867;28;20126;-73
2024/03/21 03:35:54;;;;;;;13.98;7.82;;;;;;;-146.27;86.26;44201.25;5081214;28;20096;-73
2024/03/21 03:38:19;;;;;;;17.35;7.80;;;;;;;-146.27;86.40;44171.41;5093718;28;20480;-73
2024/03/21 03:40:45;;;;;;;17.27;8.57;;;;;;;-146.27;86.20;44173.38;5084047;28;20108;-73
2024/03/21 03:43:11;;;;;;;15.02;8.73;;;;;;;-146.27;86.26;44169.41;5088339;28;20020;-74
2024/03/21 03:45:36;;;;;;;18.40;8.95;;;;;;;-146.27;86.44;44159.47;5087924;28;20041;-73
2024/03/21 03:48:01;;;;;;;25.45;9.63;;;;;;;-146.27;86.21;44187.31;5086514;28;20034;-73
2024/03/21 03:50:27;;;;;;;15.88;8.70;;;;;;;-146.27;86.71;44165.44;5083984;28;20089;-73
2024/03/21 03:52:52;;;;;;;17.17;9.68;;;;;;;-146.27;86.23;44161.44;5086869;28;20031;-73
2024/03/21 03:55:18;;;;;;;17.02;8.45;;;;;;;-146.27;85.72;44191.28;5089746;28;20024;-73
2024/03/21 03:57:43;;;;;;;12.77;6.40;;;;;;;-146.27;85.91;44173.38;5090522;28;20082;-71
2024/03/21 04:00:10;;;;;;;10.40;6.95;;;;;;;-146.27;85.42;44183.34;5071578;28;20548;-70
2024/03/21 04:02:37;;;;;;;11.18;6.88;;;;;;;-146.27;85.26;44223.13;5097777;28;20063;-71
2024/03/21 04:05:06;;;;;;;12.35;7.78;;;;;;;-146.27;85.13;44185.31;5096405;28;20044;-72
2024/03/21 04:07:32;;;;;;;11.65;7.43;;;;;;;-146.27;84.99;44254.97;5076061;28;20114;-71
2024/03/21 04:09:57;;;;;;;12.82;7.53;;;;;;;-146.27;84.81;44211.19;5087054;28;20111;-71
2024/03/21 04:12:24;;;;;;;9.02;6.85;;;;;;;-146.27;84.29;44237.06;5092547;28;20480;-72
2024/03/21 04:14:52;;;;;;;8.82;5.90;;;;;;;-146.27;83.86;44294.75;5092566;28;20093;-71
2024/03/21 04:17:18;;;;;;;9.20;5.22;;;;;;;-146.27;83.69;44270.88;5092185;28;20031;-70
2024/03/21 04:19:44;;;;;;;6.18;4.53;;;;;;;-146.27;83.12;44318.63;5090132;28;20020;-71
2024/03/21 04:22:09;;;;;;;9.05;5.07;;;;;;;-146.27;83.07;44324.59;5075693;28;20494;-70
2024/03/21 04:24:36;;;;;;;12.07;5.90;;;;;;;-146.27;83.14;44334.56;5086172;28;20027;-70
2024/03/21 04:27:02;;;;;;;8.80;5.13;;;;;;;-146.27;82.79;44352.47;5089319;28;20079;-71
2024/03/21 04:29:27;;;;;;;7.97;5.28;;;;;;;-146.27;82.63;44314.66;5094091;28;20054;-70
2024/03/21 04:31:53;;;;;;;11.52;5.38;;;;;;;-146.27;82.70;44322.63;5087900;28;20031;-71
2024/03/21 04:34:18;;;;;;;8.27;5.78;;;;;;;-146.27;82.71;44324.59;5084306;28;20032;-71
2024/03/21 04:36:43;;;;;;;13.68;5.82;;;;;;;-146.27;82.72;44332.56;5102015;28;20024;-69
2024/03/21 04:39:09;;;;;;;14.13;4.80;;;;;;;-146.27;82.64;44314.66;5096289;28;20487;-71
2024/03/21 04:41:34;;;;;;;8.18;4.75;;;;;;;-146.27;82.36;44376.34;5093700;28;20376;-72
2024/03/21 04:43:59;;;;;;;5.97;4.25;;;;;;;-146.27;81.98;44372.34;5099896;28;20028;-71
2024/03/21 04:46:25;;;;;;;7.63;3.67;;;;;;;-146.27;81.86;44404.19;5085767;28;20017;-70
2024/03/21 04:48:50;;;;;;;9.45;4.25;;;;;;;-146.27;81.39;44366.38;5089016;28;20038;-72
2024/03/21 04:51:15;;;;;;;5.43;3.90;;;;;;;-146.27;81.53;44410.16;5082598;28;20414;-71
2024/03/21 04:53:40;;;;;;;7.90;3.17;;;;;;;-146.27;81.30;44370.38;5085245;28;20027;-70
2024/03/21 04:56:06;;;;;;;11.20;2.97;;;;;;;-146.27;81.05;44374.34;5091505;28;20472;-71
2024/03/21 04:58:32;;;;;;;10.35;2.90;;;;;;;-146.27;80.94;44457.91;5080720;28;20407;-71
2024/03/21 05:00:57;;;;;;;5.03;2.15;;;;;;;-146.27;80.62;44467.88;5079717;28;20024;-71
2024/03/21 05:03:23;;;;;;;4.38;2.30;;;;;;;-146.27;80.54;44424.09;5079739;28;20499;-72
2024/03/21 05:05:48;;;;;;;6.53;2.13;;;;;;;-146.27;80.69;44442.00;5080637;28;20024;-71
2024/03/21 05:08:14;;;;;;;11.15;1.88;;;;;;;-146.27;80.51;44418.13;5083929;28;20050;-71
2024/03/21 05:10:39;;;;;;;7.93;2.15;;;;;;;-146.27;80.43;44451.94;5081066;28;20024;-70
2024/03/21 05:13:05;;;;;;;6.43;2.13;;;;;;;-146.27;79.99;44487.75;5079007;28;20131;-71
2024/03/21 05:15:30;;;;;;;7.05;1.90;;;;;;;-146.27;80.05;44461.91;5082903;28;20114;-71
2024/03/21 05:17:55;;;;;;;5.50;2.28;;;;;;;-146.27;79.84;44489.75;5084693;28;20527;-71
2024/03/21 05:20:21;;;;;;;4.78;1.27;;;;;;;-146.27;79.70;44533.53;5078873;28;20535;-71
2024/03/21 05:22:47;;;;;;;7.40;1.70;;;;;;;-146.27;79.22;44557.41;5089511;28;20027;-70
2024/03/21 05:25:13;;;;;;;5.68;1.50;;;;;;;-146.27;79.28;44533.53;5088241;28;20048;-70
2024/03/21 05:27:38;;;;;;;6.30;1.20;;;;;;;-146.27;79.15;44581.28;5093918;28;20036;-70
2024/03/21 05:30:06;;;;;;;5.22;1.25;;;;;;;-146.27;78.95;44654.91;5079294;28;20035;-71
2024/03/21 05:32:32;;;;;;;7.72;1.55;;;;;;;-146.27;78.88;44601.19;5089735;28;20112;-71
2024/03/21 05:34:57;;;;;;;3.03;1.35;;;;;;;-146.27;79.37;44652.91;5083453;28;20059;-70
2024/03/21 05:37:23;;;;;;;5.60;1.17;;;;;;;-146.27;79.18;44696.69;5084222;28;20031;-71
2024/03/21 05:39:48;;;;;;;5.22;1.40;;;;;;;-146.27;79.33;44672.81;5084880;28;20020;-71
2024/03/21 05:42:17;;;;;;;2.85;1.00;;;;;;;-146.27;79.36;44654.91;5084547;28;20020;-72
2024/03/21 05:44:43;;;;;;;9.60;1.17;;;;;;;-146.27;79.16;44690.72;5090404;28;20099;-70
2024/03/21 05:47:23;;;;;;;7.72;0.98;;;;;;;-146.27;79.16;44617.09;5089046;28;20046;-70
2024/03/21 05:49:49;;;;;;;6.38;1.05;;;;;;;-146.27;78.99;44684.75;5088396;28;20028;-72
2024/03/21 05:52:15;;;;;;;6.68;0.90;;;;;;;-146.27;79.18;44648.94;5088647;28;20031;-72
2024/03/21 05:54:40;;;;;;;6.10;1.45;;;;;;;-146.27;79.40;44668.84;5086565;28;20060;-71
2024/03/21 05:57:06;;;;;;;7.03;1.33;;;;;;;-146.27;79.41;44680.78;5083858;28;20020;-71
2024/03/21 05:59:31;;;;;;;3.50;1.20;;;;;;;-146.27;79.91;44712.59;5089709;28;20027;-72
2024/03/21 06:01:56;;;;;;;5.15;1.27;;;;;;;-146.27;79.57;44686.75;5079323;28;20719;-72
2024/03/21 06:04:22;;;;;;;3.65;1.00;;;;;;;-146.27;79.58;44716.59;5086704;28;20020;-72
2024/03/21 06:06:47;;;;;;;4.22;0.90;;;;;;;-146.27;79.85;44738.47;5082459;28;20111;-72
2024/03/21 06:09:14;;;;;;;6.28;1.33;;;;;;;-146.27;80.15;44760.38;5078611;28;20027;-71
2024/03/21 06:11:40;;;;;;;3.22;1.35;;;;;;;-146.27;80.06;44732.50;5077421;28;20024;-71
2024/03/21 06:14:05;;;;;;;5.55;1.02;;;;;;;-146.27;79.43;44744.44;5078747;28;20028;-72
2024/03/21 06:16:31;;;;;;;4.85;1.15;;;;;;;-146.27;79.15;44802.16;5074817;28;20030;-74
2024/03/21 06:18:56;;;;;;;8.48;1.75;;;;;;;-146.27;79.20;44808.13;5079170;28;20024;-75
2024/03/21 06:21:22;;;;;;;2.85;1.20;;;;;;;-146.27;78.66;44828.03;5089184;28;20396;-75
2024/03/21 06:23:47;;;;;;;3.90;0.90;;;;;;;-146.27;78.95;44851.91;5082820;28;20024;-75
2024/03/21 06:26:13;;;;;;;7.50;1.30;;;;;;;-146.27;78.71;44879.75;5087669;28;20485;-75
2024/03/21 06:28:38;;;;;;;4.07;0.98;;;;;;;-146.27;78.41;44915.59;5089100;28;20368;-75
2024/03/21 06:31:03;;;;;;;3.17;0.85;;;;;;;-146.27;78.38;44907.63;5091216;28;20524;-75
2024/03/21 06:33:29;;;;;;;1.08;0.70;;;;;;;-146.27;78.52;44971.31;5081063;28;20054;-74
2024/03/21 06:35:54;;;;;;;5.63;1.27;;;;;;;-146.27;78.49;44995.19;5078672;28;20032;-74
2024/03/21 06:38:20;;;;;;;6.68;1.30;;;;;;;-146.27;78.62;45003.16;5086564;28;20703;-74
2024/03/21 06:40:45;;;;;;;6.47;1.00;;;;;;;-146.27;78.61;45038.97;5093312;28;20055;-75
2024/03/21 06:43:11;;;;;;;4.40;0.65;;;;;;;-146.27;78.67;45052.91;5085272;28;20031;-73
2024/03/21 06:45:37;;;;;;;2.78;0.80;;;;;;;-146.27;78.80;45066.81;5086439;28;20024;-75
2024/03/21 06:48:03;;;;;;;2.03;0.75;;;;;;;-146.27;78.75;45094.69;5080484;28;20032;-74
2024/03/21 06:50:29;;;;;;;4.75;1.38;;;;;;;-146.27;79.65;45100.66;5087514;28;20077;-74
2024/03/21 06:52:57;;;;;;;9.50;0.95;;;;;;;-146.27;79.41;45100.66;5082809;28;20031;-74
2024/03/21 06:55:22;;;;;;;6.07;1.17;;;;;;;-146.27;79.53;45166.31;5090434;28;20027;-75
2024/03/21 06:57:54;;;;;;;7.30;0.95;;;;;;;-146.27;79.53;45162.34;5087117;28;20028;-75
2024/03/21 07:00:21;;;;;;;3.65;1.25;;;;;;;-146.27;79.28;45162.34;5084987;28;20420;-74
2024/03/21 07:02:46;;;;;;;3.53;1.40;;;;;;;-146.27;79.22;45164.34;5086781;28;20034;-73
2024/03/21 07:05:12;;;;;;;2.72;1.10;;;;;;;-146.27;78.79;45192.19;5085877;28;20034;-74
2024/03/21 07:07:37;;;;;;;6.88;1.48;;;;;;;-146.27;78.59;45168.31;5088133;28;20361;-74
2024/03/21 07:10:03;;;;;;;9.20;1.50;;;;;;;-146.27;78.00;45190.22;5090080;28;20036;-74
2024/03/21 07:12:29;;;;;;;5.10;1.63;;;;;;;-146.27;77.89;45182.25;5087985;28;20027;-71
2024/03/21 07:14:54;;;;;;;7.65;0.95;;;;;;;-146.27;77.97;45194.19;5092286;28;20114;-73
2024/03/21 07:17:20;;;;;;;8.75;1.10;;;;;;;-146.27;77.82;45186.22;5090375;28;20053;-73
2024/03/21 07:19:46;;;;;;;8.13;1.35;;;;;;;-146.27;77.79;45241.94;5084552;28;20047;-75
2024/03/21 07:22:12;;;;;;;13.10;1.90;;;;;;;-146.27;77.70;45243.94;5084442;28;20027;-75
2024/03/21 07:24:37;;;;;;;4.57;1.38;;;;;;;-146.27;78.46;45257.88;5088235;28;20020;-75
2024/03/21 07:27:03;;;;;;;2.00;0.95;;;;;;;-146.27;78.89;45235.97;5092240;28;20040;-72
2024/03/21 07:29:28;;;;;;;5.53;1.20;;;;;;;-146.27;79.66;45208.13;5093177;28;20051;-72
2024/03/21 07:31:54;;;;;;;9.48;1.98;;;;;;;-146.27;79.90;45190.22;5091800;28;20093;-71
2024/03/21 07:34:20;;;;;;;4.72;1.48;;;;;;;-146.27;79.61;45170.31;5093616;28;20024;-71
2024/03/21 07:36:45;;;;;;;9.43;2.08;;;;;;;-146.27;79.34;45190.22;5090194;28;20036;-72
2024/03/21 07:39:11;;;;;;;5.90;1.80;;;;;;;-146.27;80.13;45186.22;5090655;28;20458;-72
2024/03/21 07:41:36;;;;;;;12.60;1.83;;;;;;;-146.27;79.25;45178.28;5089167;28;20437;-72
2024/03/21 07:44:02;;;;;;;6.13;1.20;;;;;;;-146.27;78.94;45228.03;5090385;28;20020;-73
2024/03/21 07:46:29;;;;;;;7.97;1.10;;;;;;;-146.27;78.71;45232.00;5093695;28;20479;-71
2024/03/21 07:48:55;;;;;;;7.35;1.40;;;;;;;-146.27;78.14;45239.97;5093308;28;20024;-72
2024/03/21 07:51:21;;;;;;;4.72;1.33;;;;;;;-146.27;77.71;45263.84;5092509;28;20214;-72
2024/03/21 07:53:46;;;;;;;6.43;0.95;;;;;;;-146.27;77.01;45297.69;5093977;28;20024;-72
2024/03/21 07:56:11;;;;;;;8.60;1.52;;;;;;;-146.27;76.50;45347.44;5091983;28;20028;-72
2024/03/21 07:58:37;;;;;;;4.40;1.00;;;;;;;-146.27;78.17;45299.66;5090670;28;20071;-72
2024/03/21 08:01:02;;;;;;;6.00;1.08;;;;;;;-146.27;78.15;45297.69;5092206;28;20457;-71
2024/03/21 08:03:27;;;;;;;9.30;1.00;;;;;;;-146.27;78.01;45265.84;5092544;28;20379;-70
2024/03/21 08:05:54;;;;;;;8.27;1.20;;;;;;;-146.27;77.15;45275.78;5091116;28;20016;-70
2024/03/21 08:08:19;;;;;;;3.25;1.02;;;;;;;-146.27;77.48;45311.59;5091898;28;20040;-71
2024/03/21 08:10:44;;;;;;;9.45;1.50;;;;;;;-146.27;76.61;45307.63;5090258;28;20251;-71
2024/03/21 08:13:10;;;;;;;6.28;1.25;;;;;;;-146.27;76.07;45315.59;5101328;28;20772;-69
2024/03/21 08:15:36;;;;;;;4.40;1.02;;;;;;;-146.27;76.25;45285.75;5101887;28;20032;-70
2024/03/21 08:18:03;;;;;;;3.80;1.02;;;;;;;-146.27;76.26;45315.59;5101230;28;21428;-70
2024/03/21 08:20:29;;;;;;;6.13;1.23;;;;;;;-146.27;75.84;45291.72;5103499;28;20032;-69
2024/03/21 08:22:54;;;;;;;5.47;1.38;;;;;;;-146.27;75.98;45281.75;5095256;28;20024;-69
2024/03/21 08:25:19;;;;;;;2.20;1.20;;;;;;;-146.27;76.51;45345.44;5097403;28;20036;-69
2024/03/21 08:27:45;;;;;;;3.72;1.20;;;;;;;-146.27;76.55;45283.75;5105666;28;20047;-70
2024/03/21 08:30:12;;;;;;;6.47;1.38;;;;;;;-146.27;77.53;45321.56;5097818;28;20110;-70
2024/03/21 08:32:37;;;;;;;3.45;1.05;;;;;;;-146.27;76.63;45301.66;5096540;28;20042;-72
2024/03/21 08:35:04;;;;;;;4.93;1.27;;;;;;;-146.27;76.58;45287.72;5090736;28;20032;-70
2024/03/21 08:37:30;;;;;;;5.88;1.90;;;;;;;-146.27;76.78;45297.69;5102357;28;20305;-70
2024/03/21 08:39:57;;;;;;;6.20;1.52;;;;;;;-146.27;76.58;45273.78;5099279;28;20039;-70
2024/03/21 08:42:23;;;;;;;12.45;1.77;;;;;;;-146.27;76.22;45279.75;5097467;28;20377;-71
2024/03/21 08:44:48;;;;;;;10.73;1.50;;;;;;;-146.27;76.38;45289.72;5092367;28;20031;-70
2024/03/21 08:47:13;;;;;;;8.32;1.35;;;;;;;-146.27;75.66;45249.91;5100368;28;20551;-70
2024/03/21 08:49:39;;;;;;;3.97;1.15;;;;;;;-146.27;74.62;45329.53;5101044;28;20034;-69
2024/03/21 08:52:04;;;;;;;5.20;1.00;;;;;;;-146.27;74.02;45401.16;5093114;28;20392;-69
2024/03/21 08:54:29;;;;;;;5.25;1.27;;;;;;;-146.27;74.08;45405.16;5099604;28;20055;-69
2024/03/21 08:56:55;;;;;;;4.97;0.93;;;;;;;-146.27;74.08;45413.09;5098019;28;20015;-69
2024/03/21 08:59:21;;;;;;;5.00;1.58;;;;;;;-146.27;74.44;45425.06;5109074;27;20036;-69
2024/03/21 09:01:46;;;;;;;4.78;1.02;;;;;;;-146.27;74.33;45421.06;5100340;28;20030;-69
2024/03/21 09:04:12;;;;;;;6.55;1.92;;;;;;;-146.27;74.32;45373.31;5092031;28;20032;-70
2024/03/21 09:06:37;;;;;;;5.82;1.30;;;;;;;-146.27;74.67;45385.25;5099625;28;20468;-69
2024/03/21 09:09:05;;;;;;;4.95;1.45;;;;;;;-146.27;74.60;45347.44;5092950;28;20047;-69
2024/03/21 09:11:32;;;;;;;8.10;1.52;;;;;;;-146.27;74.18;45391.22;5095516;28;20062;-69
2024/03/21 09:13:57;;;;;;;5.45;1.10;;;;;;;-146.27;74.27;45385.25;5090138;28;20448;-68
2024/03/21 09:16:24;;;;;;;6.35;1.10;;;;;;;-146.27;74.23;45355.41;5093008;28;20110;-70
2024/03/21 09:18:49;;;;;;;3.80;1.02;;;;;;;-146.27;74.14;45389.22;5098416;28;20376;-70
2024/03/21 09:21:15;;;;;;;9.45;1.70;;;;;;;-146.27;74.25;45393.22;5103933;28;20069;-68
2024/03/21 09:23:40;;;;;;;7.70;1.50;;;;;;;-146.27;74.23;45345.44;5103223;28;20027;-70
2024/03/21 09:26:06;;;;;;;5.30;1.15;;;;;;;-146.27;73.82;45411.13;5088837;28;20036;-69
2024/03/21 09:28:31;;;;;;;2.45;0.90;;;;;;;-146.27;73.35;45353.41;5098910;28;20028;-68
2024/03/21 09:30:57;;;;;;;1.75;0.70;;;;;;;-146.27;73.97;45335.50;5096164;28;20028;-68
2024/03/21 09:33:22;;;;;;;4.35;1.40;;;;;;;-146.27;74.05;45333.50;5093788;28;20032;-68
2024/03/21 09:36:03;;;;;;;9.27;1.40;;;;;;;-146.27;73.82;45333.50;5091684;28;20023;-69
2024/03/21 09:38:29;;;;;;;7.30;1.30;;;;;;;-146.27;74.86;45488.75;5097145;28;20119;-68
2024/03/21 09:40:59;;;;;;;5.85;0.90;;;;;;;-146.27;75.29;45520.59;5092566;28;20112;-68
2024/03/21 09:43:27;;;;;;;2.97;1.08;;;;;;;-146.27;74.51;45474.81;5101822;28;20032;-69
2024/03/21 09:45:53;;;;;;;6.18;1.05;;;;;;;-146.27;75.40;45401.16;5087883;28;20066;-73
2024/03/21 09:48:19;;;;;;;7.28;2.00;;;;;;;-146.27;75.05;45442.97;5095805;28;20548;-74
2024/03/21 09:50:46;;;;;;;3.70;1.40;;;;;;;-146.27;75.38;45480.78;5100915;28;20028;-75
2024/03/21 09:53:16;;;;;;;7.40;1.52;;;;;;;-146.27;76.70;45508.63;5097714;28;20024;-75
2024/03/21 09:55:45;;;;;;;5.93;1.20;;;;;;;-146.27;76.35;45470.81;5097263;28;20028;-75
2024/03/21 09:58:12;;;;;;;3.88;1.00;;;;;;;-146.27;76.09;45446.94;5096192;28;20085;-75
2024/03/21 10:00:39;;;;;;;3.47;1.40;;;;;;;-146.27;75.42;45437.00;5097771;28;20023;-75
2024/03/21 10:03:04;;;;;;;2.22;1.40;;;;;;;-146.27;75.06;45435.00;5100594;28;20028;-74
2024/03/21 10:05:30;;;;;;;2.30;0.80;;;;;;;-146.27;74.73;45421.06;5090381;28;20024;-74
2024/03/21 10:07:55;;;;;;;6.20;1.30;;;;;;;-146.27;74.70;45458.88;5091332;28;20123;-74
2024/03/21 10:10:21;;;;;;;5.13;1.38;;;;;;;-146.27;75.15;45496.69;5096939;28;20035;-75
2024/03/21 10:12:47;;;;;;;4.22;1.23;;;;;;;-146.27;74.38;45464.84;5095173;28;20035;-75
2024/03/21 10:15:13;;;;;;;3.75;1.20;;;;;;;-146.27;74.72;45458.88;5089726;28;20028;-74
2024/03/21 10:17:40;;;;;;;4.35;1.38;;;;;;;-146.27;74.58;45403.16;5092874;28;20028;-75
2024/03/21 10:20:08;;;;;;;2.50;1.33;;;;;;;-146.27;74.17;45403.16;5094102;28;20161;-75
2024/03/21 10:22:33;;;;;;;6.03;1.48;;;;;;;-146.27;74.50;45401.16;5094337;28;20070;-74
2024/03/21 10:25:03;;;;;;;6.40;1.88;;;;;;;-146.27;74.27;45389.22;5091119;28;20071;-75
2024/03/21 10:27:29;;;;;;;4.38;1.80;;;;;;;-146.27;74.76;45444.94;5092211;28;20019;-75
2024/03/21 10:29:55;;;;;;;8.27;1.80;;;;;;;-146.27;74.46;45425.06;5095206;28;20027;-75
2024/03/21 10:32:21;;;;;;;2.67;1.77;;;;;;;-146.27;75.19;45512.63;5091701;28;20031;-75
2024/03/21 10:34:48;;;;;;;2.80;1.73;;;;;;;-146.27;74.95;45510.63;5086832;28;20031;-74
2024/03/21 10:37:18;;;;;;;4.75;2.03;;;;;;;-146.27;74.50;45464.84;5086655;28;20035;-75
2024/03/21 10:39:45;;;;;;;3.17;1.80;;;;;;;-146.27;74.60;45508.63;5102413;28;20117;-75
2024/03/21 10:42:19;;;;;;;5.78;1.83;;;;;;;-146.27;74.29;45496.69;5094195;28;20032;-74
2024/03/21 10:44:47;;;;;;;3.47;1.50;;;;;;;-146.27;73.92;45421.06;5090075;28;20110;-74
2024/03/21 10:47:13;;;;;;;7.53;1.48;;;;;;;-146.27;73.63;45472.81;5097942;28;20471;-75
2024/03/21 10:49:40;;;;;;;6.57;1.60;;;;;;;-146.27;73.68;45401.16;5099419;28;20023;-73
2024/03/21 10:52:05;;;;;;;3.75;1.40;;;;;;;-146.27;73.47;45413.09;5098078;28;20115;-73
2024/03/21 10:54:38;;;;;;;2.20;1.25;;;;;;;-146.27;73.34;45442.97;5094095;28;20119;-74
2024/03/21 10:57:18;;;;;;;8.18;1.42;;;;;;;-146.27;73.22;45423.06;5103135;28;20032;-69
2024/03/21 10:59:44;;;;;;;5.78;1.50;;;;;;;-146.27;73.32;45413.09;5088092;28;20059;-69
2024/03/21 11:02:13;;;;;;;5.22;1.27;;;;;;;-146.27;73.44;45357.38;5098321;28;20498;-71
2024/03/21 11:04:42;;;;;;;4.07;1.70;;;;;;;-146.27;74.05;45429.03;5088344;28;20103;-69
2024/03/21 11:07:13;;;;;;;6.95;1.92;;;;;;;-146.27;73.26;45377.28;5097142;28;20447;-68
2024/03/21 11:09:43;;;;;;;5.10;1.63;;;;;;;-146.27;73.63;45405.16;5098928;28;20522;-70